createdAt,value
2022-08-28T00:02:15.830Z,99844.75
2022-08-28T00:05:20.669Z,99842.91
2022-08-28T00:08:23.314Z,99837.94
2022-08-28T00:11:25.782Z,99839.81
2022-08-28T00:14:28.210Z,99838.34
2022-08-28T00:17:30.692Z,99824.50
2022-08-28T00:20:34.229Z,99811.44
2022-08-28T00:23:42.546Z,99813.66
2022-08-28T00:27:04.501Z,99820.03
2022-08-28T00:30:08.491Z,99828.84
2022-08-28T00:33:13.821Z,99824.88
2022-08-28T00:36:16.300Z,99847.69
2022-08-28T00:39:18.504Z,99847.44
2022-08-28T00:42:21.649Z,99841.00
2022-08-28T00:45:27.166Z,99848.81
2022-08-28T00:48:29.995Z,99843.38
2022-08-28T00:51:52.986Z,99832.87
2022-08-28T00:55:04.643Z,99836.28
2022-08-28T00:58:06.829Z,99841.78
2022-08-28T01:01:09.539Z,99846.69
2022-08-28T01:04:17.275Z,99835.25
2022-08-28T01:07:22.012Z,99836.13
2022-08-28T01:10:26.023Z,99826.97
2022-08-28T01:13:30.015Z,99823.06
2022-08-28T01:16:34.414Z,99814.88
2022-08-28T01:19:43.110Z,99817.94
2022-08-28T01:22:59.200Z,99819.59
2022-08-28T01:26:01.937Z,99841.78
2022-08-28T01:29:11.905Z,99838.94
2022-08-28T01:32:14.818Z,99844.47
2022-08-28T01:35:20.662Z,99841.94
2022-08-28T01:38:26.966Z,99854.72
2022-08-28T01:41:29.621Z,99866.91
2022-08-28T01:44:32.178Z,99857.22
2022-08-28T01:47:34.368Z,99854.94
2022-08-28T01:50:37.703Z,99860.84
2022-08-28T01:53:41.539Z,99858.94
2022-08-28T01:56:47.814Z,99857.22
2022-08-28T01:59:51.043Z,99849.09
2022-08-28T02:02:56.561Z,99842.31
2022-08-28T02:05:59.527Z,99830.91
2022-08-28T02:09:02.384Z,99821.50
2022-08-28T02:12:05.776Z,99820.41
2022-08-28T02:15:08.512Z,99823.66
2022-08-28T02:18:12.762Z,99811.31
2022-08-28T02:21:15.050Z,99805.97
2022-08-28T02:24:17.847Z,99804.06
2022-08-28T02:27:20.032Z,99816.41
2022-08-28T02:30:23.595Z,99806.44
2022-08-28T02:33:26.004Z,99810.53
2022-08-28T02:36:28.510Z,99816.78
2022-08-28T02:39:31.644Z,99808.84
2022-08-28T02:42:34.486Z,99809.34
2022-08-28T02:45:37.138Z,99808.25
2022-08-28T02:48:40.607Z,99810.91
2022-08-28T02:51:42.838Z,99816.06
2022-08-28T02:54:46.807Z,99802.09
2022-08-28T02:57:49.429Z,99806.31
2022-08-28T03:00:52.353Z,99819.22
2022-08-28T03:03:54.545Z,99840.94
2022-08-28T03:06:58.294Z,99863.22
2022-08-28T03:10:01.224Z,99862.03
2022-08-28T03:13:06.279Z,99854.91
2022-08-28T03:16:08.603Z,99857.50
2022-08-28T03:19:11.123Z,99854.00
2022-08-28T03:22:13.311Z,99854.00
2022-08-28T03:25:17.356Z,99863.22
2022-08-28T03:28:19.673Z,99848.94
2022-08-28T03:31:24.935Z,99846.47
2022-08-28T03:34:27.122Z,99846.16
2022-08-28T03:37:29.634Z,99843.63
2022-08-28T03:40:32.397Z,99847.56
2022-08-28T03:43:34.968Z,99842.22
2022-08-28T03:46:37.139Z,99856.97
2022-08-28T03:49:39.879Z,99861.00
2022-08-28T03:52:42.200Z,99854.66
2022-08-28T03:55:44.710Z,99854.00
2022-08-28T03:58:47.177Z,99845.34
2022-08-28T04:01:49.872Z,99850.88
2022-08-28T04:04:52.608Z,99847.28
2022-08-28T04:07:54.780Z,99834.41
2022-08-28T04:10:59.534Z,99837.09
2022-08-28T04:14:01.913Z,99839.47
2022-08-28T04:17:05.863Z,99838.44
2022-08-28T04:20:10.910Z,99845.44
2022-08-28T04:23:13.379Z,99847.56
2022-08-28T04:26:18.295Z,99857.78
2022-08-28T04:29:23.115Z,99854.56
2022-08-28T04:32:25.486Z,99852.00
2022-08-28T04:35:29.003Z,99854.19
2022-08-28T04:38:31.264Z,99845.81
2022-08-28T04:41:36.932Z,99854.31
2022-08-28T04:44:39.120Z,99862.03
2022-08-28T04:47:41.615Z,99865.88
2022-08-28T04:50:46.975Z,99869.81
2022-08-28T04:53:49.444Z,99875.53
2022-08-28T04:56:51.919Z,99879.44
2022-08-28T04:59:55.089Z,99891.53
2022-08-28T05:02:57.519Z,99896.75
2022-08-28T05:06:03.639Z,99900.91
2022-08-28T05:09:05.845Z,99903.56
2022-08-28T05:12:08.400Z,99907.28
2022-08-28T05:15:10.974Z,99903.22
2022-08-28T05:18:15.395Z,99910.56
2022-08-28T05:21:21.068Z,99910.56
2022-08-28T05:24:23.693Z,99913.53
2022-08-28T05:27:26.566Z,99911.13
2022-08-28T05:30:29.300Z,99914.41
2022-08-28T05:33:31.553Z,99908.91
2022-08-28T05:36:37.025Z,99914.22
2022-08-28T05:39:39.419Z,99916.59
2022-08-28T05:42:41.931Z,99911.38
2022-08-28T05:45:44.330Z,99918.34
2022-08-28T05:48:48.674Z,99921.00
2022-08-28T05:51:51.026Z,99920.25
2022-08-28T05:54:53.567Z,99920.53
2022-08-28T05:58:15.736Z,99917.66
2022-08-28T06:01:27.086Z,99926.09
2022-08-28T06:04:29.975Z,99923.09
2022-08-28T06:07:33.272Z,99919.56
2022-08-28T06:10:42.365Z,99925.19
2022-08-28T06:13:46.840Z,99931.84
2022-08-28T06:16:52.950Z,99928.66
2022-08-28T06:19:55.181Z,99932.56
2022-08-28T06:22:57.734Z,99924.37
2022-08-28T06:26:00.044Z,99919.56
2022-08-28T06:29:07.081Z,99918.38
2022-08-28T06:32:09.353Z,99921.12
2022-08-28T06:35:12.062Z,99920.28
2022-08-28T06:38:17.204Z,99932.06
2022-08-28T06:41:19.795Z,99933.66
2022-08-28T06:44:22.765Z,99931.00
2022-08-28T06:47:25.411Z,99939.78
2022-08-28T06:50:27.659Z,99934.41
2022-08-28T06:53:30.922Z,99941.56
2022-08-28T06:56:33.709Z,99940.03
2022-08-28T06:59:36.225Z,99943.53
2022-08-28T07:02:38.433Z,99935.50
2022-08-28T07:05:41.505Z,99947.72
2022-08-28T07:08:44.524Z,99950.59
2022-08-28T07:11:47.083Z,99956.44
2022-08-28T07:14:49.278Z,99956.41
2022-08-28T07:17:51.832Z,99960.69
2022-08-28T07:20:59.060Z,99967.38
2022-08-28T07:24:03.479Z,99963.81
2022-08-28T07:27:05.829Z,99957.16
2022-08-28T07:30:10.160Z,99961.13
2022-08-28T07:33:12.365Z,99963.41
2022-08-28T07:36:29.897Z,99963.25
2022-08-28T07:39:33.006Z,99964.63
2022-08-28T07:42:54.617Z,99965.72
2022-08-28T07:46:03.580Z,99963.22
2022-08-28T07:49:07.634Z,99954.50
2022-08-28T07:52:11.413Z,99963.19
2022-08-28T07:55:13.969Z,99965.31
2022-08-28T07:58:16.207Z,99962.41
2022-08-28T08:01:19.720Z,99962.06
2022-08-28T08:04:24.681Z,99955.63
2022-08-28T08:07:26.902Z,99957.72
2022-08-28T08:10:33.840Z,99955.50
2022-08-28T08:13:38.384Z,99961.75
2022-08-28T08:16:44.485Z,99971.50
2022-08-28T08:19:46.714Z,99967.78
2022-08-28T08:22:49.267Z,99958.31
2022-08-28T08:26:00.458Z,99966.88
2022-08-28T08:29:02.987Z,99961.66
2022-08-28T08:32:11.078Z,99962.31
2022-08-28T08:35:13.592Z,99982.12
2022-08-28T08:38:18.787Z,99973.53
2022-08-28T08:41:43.604Z,99976.75
2022-08-28T08:44:49.091Z,99970.69
2022-08-28T08:47:52.891Z,99975.28
2022-08-28T08:50:59.621Z,99975.91
2022-08-28T08:54:31.311Z,99976.81
2022-08-28T08:57:36.066Z,99976.47
2022-08-28T09:01:09.835Z,99977.25
2022-08-28T09:04:40.179Z,99970.47
2022-08-28T09:08:16.281Z,99978.47
2022-08-28T09:11:46.890Z,99982.50
2022-08-28T09:15:42.557Z,99976.66
2022-08-28T09:18:50.776Z,99978.28
2022-08-28T09:21:54.957Z,99975.16
2022-08-28T09:24:57.404Z,99979.19
2022-08-28T09:28:09.432Z,99974.91
2022-08-28T09:31:19.987Z,99980.41
2022-08-28T09:34:38.611Z,99982.72
2022-08-28T09:37:42.788Z,99986.69
2022-08-28T09:41:04.098Z,99987.59
2022-08-28T09:44:06.435Z,99988.34
2022-08-28T09:47:09.020Z,99988.00
2022-08-28T09:50:28.939Z,99987.88
2022-08-28T09:53:38.449Z,99978.91
2022-08-28T09:56:42.252Z,99980.91
2022-08-28T09:59:44.704Z,99980.03
2022-08-28T10:02:58.655Z,99979.66
2022-08-28T10:06:11.132Z,99979.16
2022-08-28T10:09:25.842Z,99978.37
2022-08-28T10:12:59.561Z,99975.09
2022-08-28T10:16:37.527Z,99978.28
2022-08-28T10:19:53.880Z,99983.31
2022-08-28T10:23:17.510Z,99974.16
2022-08-28T10:26:30.927Z,99974.66
2022-08-28T10:29:51.893Z,99974.78
2022-08-28T10:33:24.322Z,99970.94
2022-08-28T10:36:34.491Z,99975.72
2022-08-28T10:39:55.364Z,99972.25
2022-08-28T10:43:16.597Z,99968.03
2022-08-28T10:46:29.265Z,99965.88
2022-08-28T10:49:41.595Z,99967.78
2022-08-28T10:53:32.407Z,99974.28
2022-08-28T10:56:43.931Z,99963.31
2022-08-28T10:59:50.756Z,99955.84
2022-08-28T11:02:58.392Z,99952.56
2022-08-28T11:06:14.192Z,99957.09
2022-08-28T11:09:39.022Z,99954.97
2022-08-28T11:12:43.656Z,99958.81
2022-08-28T11:15:52.164Z,99961.00
2022-08-28T11:19:14.420Z,99962.66
2022-08-28T11:22:24.752Z,99962.91
2022-08-28T11:25:41.697Z,99959.69
2022-08-28T11:28:47.461Z,99955.87
2022-08-28T11:32:29.153Z,99953.63
2022-08-28T11:35:44.675Z,99952.44
2022-08-28T11:38:56.915Z,99955.03
2022-08-28T11:42:11.095Z,99952.75
2022-08-28T11:45:42.559Z,99947.37
2022-08-28T11:48:54.329Z,99951.16
2022-08-28T11:52:34.298Z,99951.22
2022-08-28T11:55:50.837Z,99943.31
2022-08-28T11:59:35.546Z,99943.78
2022-08-28T12:02:42.237Z,99937.72
2022-08-28T12:05:48.415Z,99925.66
2022-08-28T12:08:53.338Z,99929.34
2022-08-28T12:12:05.088Z,99931.53
2022-08-28T12:15:08.912Z,99925.31
2022-08-28T12:18:11.793Z,99928.81
2022-08-28T12:21:21.456Z,99926.69
2022-08-28T12:24:25.622Z,99926.47
2022-08-28T12:27:29.344Z,99931.84
2022-08-28T12:30:54.257Z,99921.78
2022-08-28T12:34:06.419Z,99914.25
2022-08-28T12:37:52.668Z,99919.56
2022-08-28T12:40:55.867Z,99915.19
2022-08-28T12:44:00.323Z,99915.69
2022-08-28T12:47:02.665Z,99913.25
2022-08-28T12:50:25.527Z,99900.47
2022-08-28T12:53:44.056Z,99903.13
2022-08-28T12:56:46.788Z,99896.50
2022-08-28T12:59:52.430Z,99898.41
2022-08-28T13:02:56.860Z,99902.50
2022-08-28T13:06:06.608Z,99899.88
2022-08-28T13:09:18.895Z,99894.28
2022-08-28T13:12:54.993Z,99896.41
2022-08-28T13:16:02.823Z,99902.69
2022-08-28T13:19:04.905Z,99890.34
2022-08-28T13:22:33.576Z,99894.34
2022-08-28T13:25:37.766Z,99887.13
2022-08-28T13:28:43.837Z,99894.94
2022-08-28T13:31:56.879Z,99885.50
2022-08-28T13:35:31.189Z,99886.31
2022-08-28T13:38:35.430Z,99883.34
2022-08-28T13:41:38.263Z,99879.50
2022-08-28T13:44:50.736Z,99879.41
2022-08-28T13:47:53.340Z,99882.62
2022-08-28T13:51:05.106Z,99878.50
2022-08-28T13:54:10.612Z,99867.53
2022-08-28T13:57:15.317Z,99869.97
2022-08-28T14:00:18.000Z,99862.06
2022-08-28T14:03:37.547Z,99871.78
2022-08-28T14:06:44.033Z,99863.41
2022-08-28T14:09:46.629Z,99863.53
2022-08-28T14:12:49.266Z,99859.19
2022-08-28T14:15:52.116Z,99860.62
2022-08-28T14:18:54.473Z,99857.56
2022-08-28T14:21:57.580Z,99859.03
2022-08-28T14:24:59.758Z,99853.50
2022-08-28T14:28:03.106Z,99856.53
2022-08-28T14:31:11.089Z,99853.81
2022-08-28T14:34:18.084Z,99854.38
2022-08-28T14:37:21.608Z,99854.69
2022-08-28T14:40:24.134Z,99857.19
2022-08-28T14:43:28.655Z,99860.94
2022-08-28T14:46:35.828Z,99856.91
2022-08-28T14:49:39.237Z,99859.28
2022-08-28T14:52:41.828Z,99856.81
2022-08-28T14:55:46.560Z,99856.47
2022-08-28T14:58:49.210Z,99864.66
2022-08-28T15:01:52.692Z,99849.47
2022-08-28T15:04:55.289Z,99858.81
2022-08-28T15:07:57.477Z,99867.97
2022-08-28T15:11:09.194Z,99861.41
2022-08-28T15:14:12.060Z,99862.84
2022-08-28T15:17:14.752Z,99859.53
2022-08-28T15:20:17.118Z,99861.69
2022-08-28T15:23:19.677Z,99869.78
2022-08-28T15:26:23.639Z,99866.34
2022-08-28T15:29:27.973Z,99877.06
2022-08-28T15:32:30.198Z,99875.31
2022-08-28T15:35:34.413Z,99876.00
2022-08-28T15:38:55.773Z,99873.09
2022-08-28T15:42:00.528Z,99870.50
2022-08-28T15:45:02.792Z,99872.72
2022-08-28T15:48:05.623Z,99870.63
2022-08-28T15:51:08.031Z,99869.91
2022-08-28T15:54:10.520Z,99868.69
2022-08-28T15:57:12.749Z,99873.25
2022-08-28T16:00:16.285Z,99876.06
2022-08-28T16:03:18.983Z,99870.50
2022-08-28T16:06:21.955Z,99861.44
2022-08-28T16:09:24.427Z,99866.16
2022-08-28T16:12:28.731Z,99864.91
2022-08-28T16:15:31.311Z,99866.94
2022-08-28T16:18:34.702Z,99869.16
2022-08-28T16:21:37.219Z,99868.41
2022-08-28T16:24:39.423Z,99864.66
2022-08-28T16:27:41.907Z,99861.50
2022-08-28T16:30:44.419Z,99857.00
2022-08-28T16:33:47.267Z,99857.38
2022-08-28T16:36:50.285Z,99863.91
2022-08-28T16:39:54.935Z,99872.09
2022-08-28T16:42:57.283Z,99873.19
2022-08-28T16:45:59.861Z,99882.38
2022-08-28T16:49:02.549Z,99884.88
2022-08-28T16:52:05.233Z,99887.81
2022-08-28T16:55:09.760Z,99894.06
2022-08-28T16:58:16.726Z,99897.84
2022-08-28T17:01:21.506Z,99902.06
2022-08-28T17:04:26.717Z,99901.87
2022-08-28T17:07:30.086Z,99910.37
2022-08-28T17:10:34.780Z,99921.97
2022-08-28T17:13:37.863Z,99908.75
2022-08-28T17:16:40.531Z,99925.41
2022-08-28T17:19:42.707Z,99927.69
2022-08-28T17:22:45.228Z,99918.22
2022-08-28T17:25:47.449Z,99923.59
2022-08-28T17:28:51.253Z,99930.88
2022-08-28T17:31:53.805Z,99936.66
2022-08-28T17:34:56.335Z,99939.16
2022-08-28T17:37:58.602Z,99940.59
2022-08-28T17:41:01.341Z,99945.78
2022-08-28T17:44:05.038Z,99945.78
2022-08-28T17:47:07.671Z,99959.44
2022-08-28T17:50:10.402Z,99961.72
2022-08-28T17:53:13.059Z,99965.44
2022-08-28T17:56:15.223Z,99974.75
2022-08-28T17:59:18.384Z,99975.56
2022-08-28T18:02:20.581Z,99977.63
2022-08-28T18:05:23.287Z,99983.00
2022-08-28T18:08:25.838Z,99972.66
2022-08-28T18:11:29.123Z,99975.59
2022-08-28T18:14:31.555Z,99978.25
2022-08-28T18:17:36.616Z,99975.12
2022-08-28T18:20:42.573Z,99968.75
2022-08-28T18:23:45.223Z,99973.09
2022-08-28T18:26:48.855Z,99976.59
2022-08-28T18:29:52.317Z,99984.66
2022-08-28T18:32:54.952Z,99991.47
2022-08-28T18:36:00.268Z,99993.13
2022-08-28T18:39:02.468Z,100005.53
2022-08-28T18:42:05.801Z,99998.72
2022-08-28T18:45:08.584Z,99995.34
2022-08-28T18:48:11.344Z,99998.84
2022-08-28T18:51:14.128Z,100003.00
2022-08-28T18:54:18.976Z,100005.88
2022-08-28T18:57:21.773Z,99998.84
2022-08-28T19:00:28.868Z,100003.78
2022-08-28T19:03:31.597Z,99996.97
2022-08-28T19:06:35.364Z,99998.44
2022-08-28T19:09:38.187Z,100003.81
2022-08-28T19:12:40.717Z,100005.47
2022-08-28T19:15:42.971Z,100014.31
2022-08-28T19:18:46.014Z,100016.19
2022-08-28T19:21:50.681Z,100021.72
2022-08-28T19:24:53.190Z,100019.00
2022-08-28T19:28:06.423Z,100014.84
2022-08-28T19:31:09.543Z,100023.47
2022-08-28T19:34:12.930Z,100032.25
2022-08-28T19:37:16.218Z,100036.16
2022-08-28T19:40:18.515Z,100039.66
2022-08-28T19:43:21.105Z,100046.69
2022-08-28T19:46:23.404Z,100042.97
2022-08-28T19:49:25.949Z,100048.53
2022-08-28T19:52:28.088Z,100043.97
2022-08-28T19:55:31.366Z,100051.97
2022-08-28T19:58:34.631Z,100056.50
2022-08-28T20:01:40.821Z,100065.19
2022-08-28T20:04:43.341Z,100064.44
2022-08-28T20:07:45.641Z,100060.47
2022-08-28T20:10:49.077Z,100067.47
2022-08-28T20:13:56.596Z,100073.47
2022-08-28T20:17:00.458Z,100067.47
2022-08-28T20:20:03.523Z,100066.41
2022-08-28T20:23:06.213Z,100064.31
2022-08-28T20:26:10.508Z,100064.66
2022-08-28T20:29:14.388Z,100078.41
2022-08-28T20:32:16.850Z,100070.53
2022-08-28T20:35:22.170Z,100081.41
2022-08-28T20:38:26.787Z,100076.19
2022-08-28T20:41:29.267Z,100076.34
2022-08-28T20:44:31.511Z,100073.00
2022-08-28T20:47:34.057Z,100088.81
2022-08-28T20:50:36.240Z,100084.31
2022-08-28T20:53:39.082Z,100083.06
2022-08-28T20:56:42.189Z,100081.16
2022-08-28T20:59:46.111Z,100085.63
2022-08-28T21:02:48.291Z,100079.00
2022-08-28T21:05:50.827Z,100081.22
2022-08-28T21:08:53.555Z,100079.97
2022-08-28T21:11:56.232Z,100078.88
2022-08-28T21:14:58.797Z,100083.34
2022-08-28T21:18:02.374Z,100082.72
2022-08-28T21:21:07.847Z,100087.84
2022-08-28T21:24:14.183Z,100085.53
2022-08-28T21:27:16.488Z,100087.00
2022-08-28T21:30:22.252Z,100085.09
2022-08-28T21:33:24.940Z,100087.94
2022-08-28T21:36:27.957Z,100093.88
2022-08-28T21:39:30.138Z,100090.25
2022-08-28T21:42:32.646Z,100093.41
2022-08-28T21:45:34.828Z,100092.69
2022-08-28T21:48:37.972Z,100098.13
2022-08-28T21:51:40.291Z,100089.56
2022-08-28T21:54:44.176Z,100097.84
2022-08-28T21:57:46.358Z,100102.19
2022-08-28T22:00:52.466Z,100099.97
2022-08-28T22:03:55.920Z,100099.78
2022-08-28T22:07:01.443Z,100098.78
2022-08-28T22:10:04.774Z,100098.78
2022-08-28T22:13:08.499Z,100100.53
2022-08-28T22:16:11.192Z,100105.37
2022-08-28T22:19:13.389Z,100109.75
2022-08-28T22:22:36.198Z,100101.00
2022-08-28T22:25:41.274Z,100109.75
2022-08-28T22:28:43.906Z,100100.59
2022-08-28T22:31:46.376Z,100098.75
2022-08-28T22:34:49.629Z,100101.44
2022-08-28T22:37:51.967Z,100103.38
2022-08-28T22:40:54.462Z,100100.97
2022-08-28T22:43:56.895Z,100098.00
2022-08-28T22:46:59.559Z,100100.31
2022-08-28T22:50:04.726Z,100100.06
2022-08-28T22:53:07.206Z,100097.56
2022-08-28T22:56:11.131Z,100097.75
2022-08-28T22:59:14.115Z,100092.53
2022-08-28T23:02:18.372Z,100097.78
2022-08-28T23:05:21.597Z,100093.16
2022-08-28T23:08:23.883Z,100093.91
2022-08-28T23:11:26.633Z,100092.41
2022-08-28T23:14:28.977Z,100090.94
2022-08-28T23:17:31.467Z,100095.66
2022-08-28T23:20:34.803Z,100102.69
2022-08-28T23:23:37.763Z,100114.47
2022-08-28T23:26:40.286Z,100111.50
2022-08-28T23:29:43.091Z,100105.16
2022-08-28T23:32:45.567Z,100117.12
2022-08-28T23:35:48.066Z,100115.66
2022-08-28T23:38:50.367Z,100112.63
2022-08-28T23:41:54.608Z,100109.88
2022-08-28T23:44:56.789Z,100120.03
2022-08-28T23:47:59.275Z,100116.00
2022-08-28T23:51:02.560Z,100118.97
2022-08-28T23:54:06.100Z,100119.44
2022-08-28T23:57:08.473Z,100117.59
